sensor_id;sensor_type;location;lat;lon;timestamp;temperature;humidity
19037;DHT22;9651;49.138;8.900;2023-01-08T00:01:43;6.70;99.90
19037;DHT22;9651;49.138;8.900;2023-01-08T00:05:45;6.70;99.90
19037;DHT22;9651;49.138;8.900;2023-01-08T00:09:48;6.60;99.90
19037;DHT22;9651;49.138;8.900;2023-01-08T00:13:51;6.60;99.90
19037;DHT22;9651;49.138;8.900;2023-01-08T00:17:53;6.60;99.90
19037;DHT22;9651;49.138;8.900;2023-01-08T00:21:55;6.50;99.90
19037;DHT22;9651;49.138;8.900;2023-01-08T00:26:01;6.50;99.90
19037;DHT22;9651;49.138;8.900;2023-01-08T00:30:04;6.40;99.90
19037;DHT22;9651;49.138;8.900;2023-01-08T00:34:06;6.40;99.90
19037;DHT22;9651;49.138;8.900;2023-01-08T00:38:08;6.40;99.90
19037;DHT22;9651;49.138;8.900;2023-01-08T00:42:11;6.40;99.90
19037;DHT22;9651;49.138;8.900;2023-01-08T00:46:13;6.30;99.90
19037;DHT22;9651;49.138;8.900;2023-01-08T00:50:15;6.30;99.90
19037;DHT22;9651;49.138;8.900;2023-01-08T00:54:17;6.20;99.90
19037;DHT22;9651;49.138;8.900;2023-01-08T00:58:20;6.30;99.90
19037;DHT22;9651;49.138;8.900;2023-01-08T01:02:22;6.30;99.90
19037;DHT22;9651;49.138;8.900;2023-01-08T01:06:24;6.30;99.90
19037;DHT22;9651;49.138;8.900;2023-01-08T01:10:25;6.30;99.90
19037;DHT22;9651;49.138;8.900;2023-01-08T01:14:28;6.30;99.90
19037;DHT22;9651;49.138;8.900;2023-01-08T01:18:31;6.30;99.90
19037;DHT22;9651;49.138;8.900;2023-01-08T01:22:32;6.30;99.90
19037;DHT22;9651;49.138;8.900;2023-01-08T01:26:34;6.20;99.90
19037;DHT22;9651;49.138;8.900;2023-01-08T01:30:37;6.20;99.90
19037;DHT22;9651;49.138;8.900;2023-01-08T01:34:39;6.20;99.90
19037;DHT22;9651;49.138;8.900;2023-01-08T01:38:42;6.30;99.90
19037;DHT22;9651;49.138;8.900;2023-01-08T01:42:44;6.30;99.90
19037;DHT22;9651;49.138;8.900;2023-01-08T01:46:49;6.30;99.90
19037;DHT22;9651;49.138;8.900;2023-01-08T01:50:51;6.30;99.90
19037;DHT22;9651;49.138;8.900;2023-01-08T01:54:54;6.30;99.90
19037;DHT22;9651;49.138;8.900;2023-01-08T01:58:56;6.30;99.90
19037;DHT22;9651;49.138;8.900;2023-01-08T02:02:59;6.30;99.90
19037;DHT22;9651;49.138;8.900;2023-01-08T02:07:08;6.30;99.90
19037;DHT22;9651;49.138;8.900;2023-01-08T02:11:17;6.40;99.90
19037;DHT22;9651;49.138;8.900;2023-01-08T02:15:23;6.40;99.90
19037;DHT22;9651;49.138;8.900;2023-01-08T02:19:36;6.40;99.90
19037;DHT22;9651;49.138;8.900;2023-01-08T02:23:45;6.30;99.90
19037;DHT22;9651;49.138;8.900;2023-01-08T02:27:50;6.30;99.90
19037;DHT22;9651;49.138;8.900;2023-01-08T02:31:54;6.30;99.90
19037;DHT22;9651;49.138;8.900;2023-01-08T02:40:49;6.30;99.90
19037;DHT22;9651;49.138;8.900;2023-01-08T02:44:57;6.30;99.90
19037;DHT22;9651;49.138;8.900;2023-01-08T02:49:06;6.40;99.90
19037;DHT22;9651;49.138;8.900;2023-01-08T02:53:12;6.40;99.90
19037;DHT22;9651;49.138;8.900;2023-01-08T02:57:16;6.40;99.90
19037;DHT22;9651;49.138;8.900;2023-01-08T03:01:21;6.30;99.90
19037;DHT22;9651;49.138;8.900;2023-01-08T03:05:25;6.30;99.90
19037;DHT22;9651;49.138;8.900;2023-01-08T03:09:28;6.40;99.90
19037;DHT22;9651;49.138;8.900;2023-01-08T03:13:33;6.40;99.90
19037;DHT22;9651;49.138;8.900;2023-01-08T03:17:42;6.40;99.90
19037;DHT22;9651;49.138;8.900;2023-01-08T03:21:45;6.50;99.90
19037;DHT22;9651;49.138;8.900;2023-01-08T03:25:48;6.50;99.90
19037;DHT22;9651;49.138;8.900;2023-01-08T03:29:52;6.60;99.90
19037;DHT22;9651;49.138;8.900;2023-01-08T03:33:57;6.60;99.90
19037;DHT22;9651;49.138;8.900;2023-01-08T03:38:05;6.60;99.90
19037;DHT22;9651;49.138;8.900;2023-01-08T03:42:11;6.70;99.90
19037;DHT22;9651;49.138;8.900;2023-01-08T03:46:15;6.70;99.90
19037;DHT22;9651;49.138;8.900;2023-01-08T03:50:24;6.70;99.90
19037;DHT22;9651;49.138;8.900;2023-01-08T03:54:29;6.80;99.90
19037;DHT22;9651;49.138;8.900;2023-01-08T03:58:31;6.90;99.90
19037;DHT22;9651;49.138;8.900;2023-01-08T04:02:33;6.90;99.90
19037;DHT22;9651;49.138;8.900;2023-01-08T04:06:36;6.90;99.90
19037;DHT22;9651;49.138;8.900;2023-01-08T04:10:38;7.00;99.90
19037;DHT22;9651;49.138;8.900;2023-01-08T04:14:40;7.00;99.90
19037;DHT22;9651;49.138;8.900;2023-01-08T04:18:42;7.20;99.90
19037;DHT22;9651;49.138;8.900;2023-01-08T04:22:45;7.20;99.90
19037;DHT22;9651;49.138;8.900;2023-01-08T04:26:47;7.30;99.90
19037;DHT22;9651;49.138;8.900;2023-01-08T04:30:49;7.30;99.90
19037;DHT22;9651;49.138;8.900;2023-01-08T04:34:51;7.30;99.90
19037;DHT22;9651;49.138;8.900;2023-01-08T04:38:54;7.30;99.90
19037;DHT22;9651;49.138;8.900;2023-01-08T04:42:56;7.30;99.90
19037;DHT22;9651;49.138;8.900;2023-01-08T04:46:58;7.30;99.90
19037;DHT22;9651;49.138;8.900;2023-01-08T04:51:01;7.30;99.90
19037;DHT22;9651;49.138;8.900;2023-01-08T04:55:05;7.30;99.90
19037;DHT22;9651;49.138;8.900;2023-01-08T04:59:07;7.40;99.90
19037;DHT22;9651;49.138;8.900;2023-01-08T05:03:08;7.40;99.90
19037;DHT22;9651;49.138;8.900;2023-01-08T05:07:10;7.40;99.90
19037;DHT22;9651;49.138;8.900;2023-01-08T05:11:14;7.40;99.90
19037;DHT22;9651;49.138;8.900;2023-01-08T05:15:16;7.30;99.90
19037;DHT22;9651;49.138;8.900;2023-01-08T05:19:18;7.30;99.90
19037;DHT22;9651;49.138;8.900;2023-01-08T05:23:20;7.30;99.90
19037;DHT22;9651;49.138;8.900;2023-01-08T05:27:23;7.30;99.90
19037;DHT22;9651;49.138;8.900;2023-01-08T05:31:25;7.30;99.90
19037;DHT22;9651;49.138;8.900;2023-01-08T05:35:27;7.30;99.90
19037;DHT22;9651;49.138;8.900;2023-01-08T05:39:29;7.30;99.90
19037;DHT22;9651;49.138;8.900;2023-01-08T05:43:32;7.30;99.90
19037;DHT22;9651;49.138;8.900;2023-01-08T05:47:34;7.30;99.90
19037;DHT22;9651;49.138;8.900;2023-01-08T05:51:36;7.30;99.90
19037;DHT22;9651;49.138;8.900;2023-01-08T05:55:38;7.20;99.90
19037;DHT22;9651;49.138;8.900;2023-01-08T05:59:41;7.30;99.90
19037;DHT22;9651;49.138;8.900;2023-01-08T06:03:43;7.20;99.90
19037;DHT22;9651;49.138;8.900;2023-01-08T06:07:45;7.20;99.90
19037;DHT22;9651;49.138;8.900;2023-01-08T06:11:47;7.20;99.90
19037;DHT22;9651;49.138;8.900;2023-01-08T06:15:50;7.20;99.90
19037;DHT22;9651;49.138;8.900;2023-01-08T06:19:52;7.20;99.90
19037;DHT22;9651;49.138;8.900;2023-01-08T06:23:53;7.20;99.90
19037;DHT22;9651;49.138;8.900;2023-01-08T06:27:55;7.30;99.90
19037;DHT22;9651;49.138;8.900;2023-01-08T06:31:58;7.20;99.90
19037;DHT22;9651;49.138;8.900;2023-01-08T06:36:01;7.20;99.90
19037;DHT22;9651;49.138;8.900;2023-01-08T06:40:04;7.30;99.90
19037;DHT22;9651;49.138;8.900;2023-01-08T06:44:06;7.30;99.90
19037;DHT22;9651;49.138;8.900;2023-01-08T06:48:10;7.30;99.90
19037;DHT22;9651;49.138;8.900;2023-01-08T06:52:11;7.20;99.90
19037;DHT22;9651;49.138;8.900;2023-01-08T06:56:13;7.30;99.90
19037;DHT22;9651;49.138;8.900;2023-01-08T07:00:15;7.20;99.90
19037;DHT22;9651;49.138;8.900;2023-01-08T07:04:19;7.20;99.90
19037;DHT22;9651;49.138;8.900;2023-01-08T07:08:21;7.20;99.90
19037;DHT22;9651;49.138;8.900;2023-01-08T07:12:23;7.20;99.90
19037;DHT22;9651;49.138;8.900;2023-01-08T07:16:25;7.20;99.90
19037;DHT22;9651;49.138;8.900;2023-01-08T07:20:28;7.20;99.90
19037;DHT22;9651;49.138;8.900;2023-01-08T07:24:30;7.20;99.90
19037;DHT22;9651;49.138;8.900;2023-01-08T07:28:33;7.20;99.90
19037;DHT22;9651;49.138;8.900;2023-01-08T07:32:34;7.20;99.90
19037;DHT22;9651;49.138;8.900;2023-01-08T07:36:38;7.20;99.90
19037;DHT22;9651;49.138;8.900;2023-01-08T07:40:39;7.20;99.90
19037;DHT22;9651;49.138;8.900;2023-01-08T07:44:41;7.30;99.90
19037;DHT22;9651;49.138;8.900;2023-01-08T07:48:43;7.30;99.90
19037;DHT22;9651;49.138;8.900;2023-01-08T07:52:46;7.30;99.90
19037;DHT22;9651;49.138;8.900;2023-01-08T07:56:48;7.30;99.90
19037;DHT22;9651;49.138;8.900;2023-01-08T08:00:50;7.30;99.90
19037;DHT22;9651;49.138;8.900;2023-01-08T08:04:52;7.30;99.90
19037;DHT22;9651;49.138;8.900;2023-01-08T08:08:55;7.40;99.90
19037;DHT22;9651;49.138;8.900;2023-01-08T08:12:59;7.40;99.90
19037;DHT22;9651;49.138;8.900;2023-01-08T08:17:01;7.40;99.90
19037;DHT22;9651;49.138;8.900;2023-01-08T08:21:03;7.40;99.90
19037;DHT22;9651;49.138;8.900;2023-01-08T08:25:08;7.40;99.90
19037;DHT22;9651;49.138;8.900;2023-01-08T08:29:10;7.40;99.90
19037;DHT22;9651;49.138;8.900;2023-01-08T08:33:12;7.50;99.90
19037;DHT22;9651;49.138;8.900;2023-01-08T08:37:14;7.50;99.90
19037;DHT22;9651;49.138;8.900;2023-01-08T08:41:17;7.50;99.90
19037;DHT22;9651;49.138;8.900;2023-01-08T08:45:19;7.60;99.90
19037;DHT22;9651;49.138;8.900;2023-01-08T08:49:21;7.60;99.90
19037;DHT22;9651;49.138;8.900;2023-01-08T08:53:23;7.70;99.90
19037;DHT22;9651;49.138;8.900;2023-01-08T08:57:26;7.70;99.90
19037;DHT22;9651;49.138;8.900;2023-01-08T09:01:28;7.80;99.90
19037;DHT22;9651;49.138;8.900;2023-01-08T09:05:30;7.90;99.90
19037;DHT22;9651;49.138;8.900;2023-01-08T09:09:32;7.90;99.90
19037;DHT22;9651;49.138;8.900;2023-01-08T09:13:36;8.00;99.90
19037;DHT22;9651;49.138;8.900;2023-01-08T09:17:38;8.10;99.90
19037;DHT22;9651;49.138;8.900;2023-01-08T09:21:40;8.10;99.90
19037;DHT22;9651;49.138;8.900;2023-01-08T09:25:42;8.00;99.90
19037;DHT22;9651;49.138;8.900;2023-01-08T09:29:45;8.10;99.90
19037;DHT22;9651;49.138;8.900;2023-01-08T09:33:47;8.10;99.90
19037;DHT22;9651;49.138;8.900;2023-01-08T09:37:50;8.20;99.90
19037;DHT22;9651;49.138;8.900;2023-01-08T09:41:52;8.20;99.90
19037;DHT22;9651;49.138;8.900;2023-01-08T09:45:58;8.30;99.90
19037;DHT22;9651;49.138;8.900;2023-01-08T09:50:03;8.40;99.90
19037;DHT22;9651;49.138;8.900;2023-01-08T09:54:13;8.40;99.90
19037;DHT22;9651;49.138;8.900;2023-01-08T09:58:31;8.40;99.90
19037;DHT22;9651;49.138;8.900;2023-01-08T10:02:36;8.40;99.90
19037;DHT22;9651;49.138;8.900;2023-01-08T10:06:39;8.40;99.90
19037;DHT22;9651;49.138;8.900;2023-01-08T10:10:42;8.40;99.90
19037;DHT22;9651;49.138;8.900;2023-01-08T10:14:45;8.40;99.90
19037;DHT22;9651;49.138;8.900;2023-01-08T10:18:50;8.60;99.90
19037;DHT22;9651;49.138;8.900;2023-01-08T10:22:53;8.80;99.90
19037;DHT22;9651;49.138;8.900;2023-01-08T10:27:05;9.00;99.90
19037;DHT22;9651;49.138;8.900;2023-01-08T10:31:09;9.10;99.90
19037;DHT22;9651;49.138;8.900;2023-01-08T10:35:16;9.20;99.90
19037;DHT22;9651;49.138;8.900;2023-01-08T10:39:22;9.30;99.90
19037;DHT22;9651;49.138;8.900;2023-01-08T10:43:27;9.40;99.90
19037;DHT22;9651;49.138;8.900;2023-01-08T10:47:33;9.50;99.90
19037;DHT22;9651;49.138;8.900;2023-01-08T10:51:47;9.60;99.90
19037;DHT22;9651;49.138;8.900;2023-01-08T10:55:56;9.70;99.90
19037;DHT22;9651;49.138;8.900;2023-01-08T10:59:59;9.80;99.90
19037;DHT22;9651;49.138;8.900;2023-01-08T11:04:03;9.90;99.90
19037;DHT22;9651;49.138;8.900;2023-01-08T11:08:15;10.00;99.90
19037;DHT22;9651;49.138;8.900;2023-01-08T11:12:30;10.00;99.90
19037;DHT22;9651;49.138;8.900;2023-01-08T11:16:35;10.20;99.90
19037;DHT22;9651;49.138;8.900;2023-01-08T11:20:38;10.20;99.90
19037;DHT22;9651;49.138;8.900;2023-01-08T11:24:43;10.30;99.90
19037;DHT22;9651;49.138;8.900;2023-01-08T11:28:49;10.40;99.90
19037;DHT22;9651;49.138;8.900;2023-01-08T11:32:59;10.40;99.90
19037;DHT22;9651;49.138;8.900;2023-01-08T11:37:07;10.60;99.90
19037;DHT22;9651;49.138;8.900;2023-01-08T11:41:24;10.70;99.90
19037;DHT22;9651;49.138;8.900;2023-01-08T11:45:36;10.80;99.90
19037;DHT22;9651;49.138;8.900;2023-01-08T11:49:55;11.00;99.90
19037;DHT22;9651;49.138;8.900;2023-01-08T11:54:05;11.20;99.90
19037;DHT22;9651;49.138;8.900;2023-01-08T11:58:21;11.30;99.90
19037;DHT22;9651;49.138;8.900;2023-01-08T12:02:33;11.30;99.90
19037;DHT22;9651;49.138;8.900;2023-01-08T12:06:45;11.30;99.90
19037;DHT22;9651;49.138;8.900;2023-01-08T12:11:00;11.50;99.90
19037;DHT22;9651;49.138;8.900;2023-01-08T12:15:12;11.70;99.90
19037;DHT22;9651;49.138;8.900;2023-01-08T12:19:33;11.90;99.90
19037;DHT22;9651;49.138;8.900;2023-01-08T12:23:51;12.00;99.90
19037;DHT22;9651;49.138;8.900;2023-01-08T12:28:05;11.90;99.90
19037;DHT22;9651;49.138;8.900;2023-01-08T12:32:18;11.80;99.90
19037;DHT22;9651;49.138;8.900;2023-01-08T12:36:26;11.70;99.90
19037;DHT22;9651;49.138;8.900;2023-01-08T12:40:32;11.50;99.90
19037;DHT22;9651;49.138;8.900;2023-01-08T12:44:37;11.30;99.90
19037;DHT22;9651;49.138;8.900;2023-01-08T12:48:43;11.20;99.90
19037;DHT22;9651;49.138;8.900;2023-01-08T12:52:51;11.10;99.90
19037;DHT22;9651;49.138;8.900;2023-01-08T12:56:57;11.00;99.90
19037;DHT22;9651;49.138;8.900;2023-01-08T13:01:15;10.90;99.90
19037;DHT22;9651;49.138;8.900;2023-01-08T13:05:31;10.70;99.90
19037;DHT22;9651;49.138;8.900;2023-01-08T13:09:33;10.70;99.90
19037;DHT22;9651;49.138;8.900;2023-01-08T13:13:37;10.60;99.90
19037;DHT22;9651;49.138;8.900;2023-01-08T13:17:47;10.70;99.90
19037;DHT22;9651;49.138;8.900;2023-01-08T13:21:52;10.70;99.90
19037;DHT22;9651;49.138;8.900;2023-01-08T13:25:56;10.80;99.90
19037;DHT22;9651;49.138;8.900;2023-01-08T13:29:58;10.90;99.90
19037;DHT22;9651;49.138;8.900;2023-01-08T13:34:01;11.10;99.90
19037;DHT22;9651;49.138;8.900;2023-01-08T13:38:15;11.20;99.90
19037;DHT22;9651;49.138;8.900;2023-01-08T13:42:22;11.30;99.90
19037;DHT22;9651;49.138;8.900;2023-01-08T13:46:28;11.30;99.90
19037;DHT22;9651;49.138;8.900;2023-01-08T13:50:30;11.30;99.90
19037;DHT22;9651;49.138;8.900;2023-01-08T13:54:37;11.30;99.90
19037;DHT22;9651;49.138;8.900;2023-01-08T13:58:44;11.30;99.90
19037;DHT22;9651;49.138;8.900;2023-01-08T14:02:47;11.40;99.90
19037;DHT22;9651;49.138;8.900;2023-01-08T14:06:50;11.50;99.90
19037;DHT22;9651;49.138;8.900;2023-01-08T14:10:53;11.40;99.90
19037;DHT22;9651;49.138;8.900;2023-01-08T14:14:56;11.40;99.90
19037;DHT22;9651;49.138;8.900;2023-01-08T14:19:02;11.20;99.90
19037;DHT22;9651;49.138;8.900;2023-01-08T14:23:10;11.10;99.90
19037;DHT22;9651;49.138;8.900;2023-01-08T14:27:22;11.00;99.90
19037;DHT22;9651;49.138;8.900;2023-01-08T14:31:26;11.10;99.90
19037;DHT22;9651;49.138;8.900;2023-01-08T14:35:31;11.10;99.90
19037;DHT22;9651;49.138;8.900;2023-01-08T14:39:34;11.10;99.90
19037;DHT22;9651;49.138;8.900;2023-01-08T14:43:42;10.90;99.90
19037;DHT22;9651;49.138;8.900;2023-01-08T14:47:46;10.90;99.90
19037;DHT22;9651;49.138;8.900;2023-01-08T14:51:49;10.80;99.90
19037;DHT22;9651;49.138;8.900;2023-01-08T14:55:51;10.70;99.90
19037;DHT22;9651;49.138;8.900;2023-01-08T14:59:57;10.70;99.90
19037;DHT22;9651;49.138;8.900;2023-01-08T15:04:04;10.60;99.90
19037;DHT22;9651;49.138;8.900;2023-01-08T15:08:22;10.50;99.90
19037;DHT22;9651;49.138;8.900;2023-01-08T15:12:26;10.50;99.90
19037;DHT22;9651;49.138;8.900;2023-01-08T15:16:32;10.50;99.90
19037;DHT22;9651;49.138;8.900;2023-01-08T15:20:37;10.50;99.90
19037;DHT22;9651;49.138;8.900;2023-01-08T15:24:39;10.40;99.90
19037;DHT22;9651;49.138;8.900;2023-01-08T15:28:54;10.40;99.90
19037;DHT22;9651;49.138;8.900;2023-01-08T15:33:08;10.50;99.90
19037;DHT22;9651;49.138;8.900;2023-01-08T15:37:16;10.40;99.90
19037;DHT22;9651;49.138;8.900;2023-01-08T15:41:20;10.40;99.90
19037;DHT22;9651;49.138;8.900;2023-01-08T15:45:38;10.30;99.90
19037;DHT22;9651;49.138;8.900;2023-01-08T15:49:41;10.30;99.90
19037;DHT22;9651;49.138;8.900;2023-01-08T15:53:43;10.30;99.90
19037;DHT22;9651;49.138;8.900;2023-01-08T15:57:45;10.20;99.90
19037;DHT22;9651;49.138;8.900;2023-01-08T16:01:47;10.20;99.90
19037;DHT22;9651;49.138;8.900;2023-01-08T16:05:50;10.20;99.90
19037;DHT22;9651;49.138;8.900;2023-01-08T16:09:52;10.10;99.90
19037;DHT22;9651;49.138;8.900;2023-01-08T16:13:53;10.20;99.90
19037;DHT22;9651;49.138;8.900;2023-01-08T16:17:56;10.10;99.90
19037;DHT22;9651;49.138;8.900;2023-01-08T16:22:00;10.10;99.90
19037;DHT22;9651;49.138;8.900;2023-01-08T16:26:04;10.00;99.90
19037;DHT22;9651;49.138;8.900;2023-01-08T16:30:09;10.00;99.90
19037;DHT22;9651;49.138;8.900;2023-01-08T16:34:12;9.90;99.90
19037;DHT22;9651;49.138;8.900;2023-01-08T16:38:15;9.90;99.90
19037;DHT22;9651;49.138;8.900;2023-01-08T16:42:19;9.90;99.90
19037;DHT22;9651;49.138;8.900;2023-01-08T16:46:20;9.90;99.90
19037;DHT22;9651;49.138;8.900;2023-01-08T16:50:22;9.90;99.90
19037;DHT22;9651;49.138;8.900;2023-01-08T16:54:26;9.90;99.90
19037;DHT22;9651;49.138;8.900;2023-01-08T16:58:28;9.90;99.90
19037;DHT22;9651;49.138;8.900;2023-01-08T17:02:30;9.90;99.90
19037;DHT22;9651;49.138;8.900;2023-01-08T17:06:32;9.90;99.90
19037;DHT22;9651;49.138;8.900;2023-01-08T17:10:38;9.90;99.90
19037;DHT22;9651;49.138;8.900;2023-01-08T17:14:40;9.80;99.90
19037;DHT22;9651;49.138;8.900;2023-01-08T17:18:42;9.80;99.90
19037;DHT22;9651;49.138;8.900;2023-01-08T17:22:44;9.80;99.90
19037;DHT22;9651;49.138;8.900;2023-01-08T17:26:47;9.80;99.90
19037;DHT22;9651;49.138;8.900;2023-01-08T17:30:50;9.80;99.90
19037;DHT22;9651;49.138;8.900;2023-01-08T17:34:52;9.80;99.90
19037;DHT22;9651;49.138;8.900;2023-01-08T17:38:54;9.70;99.90
19037;DHT22;9651;49.138;8.900;2023-01-08T17:42:57;9.70;99.90
19037;DHT22;9651;49.138;8.900;2023-01-08T17:46:59;9.70;99.90
19037;DHT22;9651;49.138;8.900;2023-01-08T17:51:04;9.70;99.90
19037;DHT22;9651;49.138;8.900;2023-01-08T17:55:07;9.70;99.90
19037;DHT22;9651;49.138;8.900;2023-01-08T17:59:11;9.70;99.90
19037;DHT22;9651;49.138;8.900;2023-01-08T18:03:13;9.70;99.90
19037;DHT22;9651;49.138;8.900;2023-01-08T18:07:16;9.70;99.90
19037;DHT22;9651;49.138;8.900;2023-01-08T18:11:18;9.70;99.90
19037;DHT22;9651;49.138;8.900;2023-01-08T18:15:21;9.80;99.90
19037;DHT22;9651;49.138;8.900;2023-01-08T18:19:23;9.80;99.90
19037;DHT22;9651;49.138;8.900;2023-01-08T18:23:25;9.80;99.90
19037;DHT22;9651;49.138;8.900;2023-01-08T18:27:27;9.80;99.90
19037;DHT22;9651;49.138;8.900;2023-01-08T18:31:30;9.80;99.90
19037;DHT22;9651;49.138;8.900;2023-01-08T18:35:32;9.70;99.90
19037;DHT22;9651;49.138;8.900;2023-01-08T18:39:34;9.60;99.90
19037;DHT22;9651;49.138;8.900;2023-01-08T18:43:36;9.60;99.90
19037;DHT22;9651;49.138;8.900;2023-01-08T18:47:39;9.50;99.90
19037;DHT22;9651;49.138;8.900;2023-01-08T18:51:42;9.50;99.90
19037;DHT22;9651;49.138;8.900;2023-01-08T18:55:44;9.40;99.90
19037;DHT22;9651;49.138;8.900;2023-01-08T18:59:47;9.30;99.90
19037;DHT22;9651;49.138;8.900;2023-01-08T19:03:50;9.30;99.90
19037;DHT22;9651;49.138;8.900;2023-01-08T19:07:52;9.20;99.90
19037;DHT22;9651;49.138;8.900;2023-01-08T19:11:54;9.10;99.90
19037;DHT22;9651;49.138;8.900;2023-01-08T19:15:56;9.10;99.90
19037;DHT22;9651;49.138;8.900;2023-01-08T19:19:59;9.10;99.90
19037;DHT22;9651;49.138;8.900;2023-01-08T19:24:01;9.10;99.90
19037;DHT22;9651;49.138;8.900;2023-01-08T19:28:03;9.10;99.90
19037;DHT22;9651;49.138;8.900;2023-01-08T19:32:05;9.10;99.90
19037;DHT22;9651;49.138;8.900;2023-01-08T19:36:10;9.10;99.90
19037;DHT22;9651;49.138;8.900;2023-01-08T19:40:15;9.10;99.90
19037;DHT22;9651;49.138;8.900;2023-01-08T19:44:17;9.10;99.90
19037;DHT22;9651;49.138;8.900;2023-01-08T19:48:19;9.10;99.90
19037;DHT22;9651;49.138;8.900;2023-01-08T19:52:22;9.20;99.90
19037;DHT22;9651;49.138;8.900;2023-01-08T19:56:24;9.20;99.90
19037;DHT22;9651;49.138;8.900;2023-01-08T20:00:26;9.20;99.90
19037;DHT22;9651;49.138;8.900;2023-01-08T20:04:28;9.30;99.90
19037;DHT22;9651;49.138;8.900;2023-01-08T20:08:31;9.30;99.90
19037;DHT22;9651;49.138;8.900;2023-01-08T20:12:33;9.40;99.90
19037;DHT22;9651;49.138;8.900;2023-01-08T20:16:35;9.40;99.90
19037;DHT22;9651;49.138;8.900;2023-01-08T20:20:37;9.40;99.90
19037;DHT22;9651;49.138;8.900;2023-01-08T20:24:40;9.40;99.90
19037;DHT22;9651;49.138;8.900;2023-01-08T20:28:44;9.50;99.90
19037;DHT22;9651;49.138;8.900;2023-01-08T20:32:46;9.50;99.90
19037;DHT22;9651;49.138;8.900;2023-01-08T20:36:48;9.50;99.90
19037;DHT22;9651;49.138;8.900;2023-01-08T20:40:51;9.50;99.90
19037;DHT22;9651;49.138;8.900;2023-01-08T20:44:53;9.50;99.90
19037;DHT22;9651;49.138;8.900;2023-01-08T20:48:55;9.50;99.90
19037;DHT22;9651;49.138;8.900;2023-01-08T20:52:59;9.50;99.90
19037;DHT22;9651;49.138;8.900;2023-01-08T20:57:02;9.40;99.90
19037;DHT22;9651;49.138;8.900;2023-01-08T21:01:05;9.40;99.90
19037;DHT22;9651;49.138;8.900;2023-01-08T21:05:07;9.30;99.90
19037;DHT22;9651;49.138;8.900;2023-01-08T21:09:10;9.30;99.90
19037;DHT22;9651;49.138;8.900;2023-01-08T21:13:13;9.20;99.90
19037;DHT22;9651;49.138;8.900;2023-01-08T21:17:15;9.20;99.90
19037;DHT22;9651;49.138;8.900;2023-01-08T21:21:19;9.10;99.90
19037;DHT22;9651;49.138;8.900;2023-01-08T21:25:21;9.10;99.90
19037;DHT22;9651;49.138;8.900;2023-01-08T21:29:24;9.00;99.90
19037;DHT22;9651;49.138;8.900;2023-01-08T21:33:27;9.00;99.90
19037;DHT22;9651;49.138;8.900;2023-01-08T21:37:29;9.00;99.90
19037;DHT22;9651;49.138;8.900;2023-01-08T21:41:31;8.90;99.90
19037;DHT22;9651;49.138;8.900;2023-01-08T21:45:55;8.90;99.90
19037;DHT22;9651;49.138;8.900;2023-01-08T21:49:57;8.90;99.90
19037;DHT22;9651;49.138;8.900;2023-01-08T21:53:59;8.90;99.90
19037;DHT22;9651;49.138;8.900;2023-01-08T21:58:01;8.90;99.90
19037;DHT22;9651;49.138;8.900;2023-01-08T22:02:04;8.80;99.90
19037;DHT22;9651;49.138;8.900;2023-01-08T22:06:07;8.80;99.90
19037;DHT22;9651;49.138;8.900;2023-01-08T22:10:10;8.80;99.90
19037;DHT22;9651;49.138;8.900;2023-01-08T22:14:12;8.80;99.90
19037;DHT22;9651;49.138;8.900;2023-01-08T22:18:15;8.80;99.90
19037;DHT22;9651;49.138;8.900;2023-01-08T22:22:17;8.80;99.90
19037;DHT22;9651;49.138;8.900;2023-01-08T22:26:19;8.70;99.90
19037;DHT22;9651;49.138;8.900;2023-01-08T22:30:21;8.70;99.90
19037;DHT22;9651;49.138;8.900;2023-01-08T22:34:24;8.70;99.90
19037;DHT22;9651;49.138;8.900;2023-01-08T22:38:26;8.70;99.90
19037;DHT22;9651;49.138;8.900;2023-01-08T22:42:28;8.70;99.90
19037;DHT22;9651;49.138;8.900;2023-01-08T22:46:30;8.70;99.90
19037;DHT22;9651;49.138;8.900;2023-01-08T22:50:33;8.70;99.90
19037;DHT22;9651;49.138;8.900;2023-01-08T22:54:36;8.70;99.90
19037;DHT22;9651;49.138;8.900;2023-01-08T22:58:38;8.80;99.90
19037;DHT22;9651;49.138;8.900;2023-01-08T23:02:40;8.80;99.90
19037;DHT22;9651;49.138;8.900;2023-01-08T23:06:43;8.80;99.90
19037;DHT22;9651;49.138;8.900;2023-01-08T23:10:45;8.80;99.90
19037;DHT22;9651;49.138;8.900;2023-01-08T23:14:47;8.80;99.90
19037;DHT22;9651;49.138;8.900;2023-01-08T23:18:49;8.70;99.90
19037;DHT22;9651;49.138;8.900;2023-01-08T23:22:52;8.80;99.90
19037;DHT22;9651;49.138;8.900;2023-01-08T23:26:54;8.70;99.90
19037;DHT22;9651;49.138;8.900;2023-01-08T23:30:56;8.70;99.90
19037;DHT22;9651;49.138;8.900;2023-01-08T23:34:58;8.60;99.90
19037;DHT22;9651;49.138;8.900;2023-01-08T23:39:01;8.60;99.90
19037;DHT22;9651;49.138;8.900;2023-01-08T23:43:03;8.50;99.90
19037;DHT22;9651;49.138;8.900;2023-01-08T23:47:05;8.50;99.90
19037;DHT22;9651;49.138;8.900;2023-01-08T23:51:07;8.50;99.90
19037;DHT22;9651;49.138;8.900;2023-01-08T23:55:11;8.50;99.90
19037;DHT22;9651;49.138;8.900;2023-01-08T23:59:12;8.50;99.90
